Tiempo atmosférico en la estación meteorológica de Córdoba Aeropuerto, Córdoba (90 m.)



Fecha
DESCASC
Temp. máxima en grados centígrados (hora)
DESCASC
Temp. mínima en grados centígrados (hora)
DESCASC
Temp. media en grados centígrados
DESCASC
Racha de viento máxima en m/sg (hora)
DESCASC
Velocidad máxima media en intervalos de 10 minutos(hora)
DESCASC
Precipitaciones diarias en mm
DESCASC
Precipitaciones de 00:00 a 06:00 en mm
DESCASC
Precipitaciones de 06:00 a 12:00 en mm
DESCASC
Precipitaciones de 12:00 a 18:00 en mm
DESCASC
Precipitaciones de 18:00 a 24:00 en mm
DESCASC
31-03-2020 18.4 (18:50) 10.8 (02:10) 14.6 12.78 (17:30) 7.5 (19:20) 21.3 14.1 4.3 2.9 0
30-03-2020 19.6 (15:20) 9.5 (05:10) 14.6 16.11 (18:30) 9.72 (18:30) 4.3 0 0 0 4.3
29-03-2020 22.4 (17:40) 7 (00:00) 14.7 5 (15:00) 3.33 (17:20) 0 0 0 0 0
28-03-2020 21.7 (16:50) 6.2 (00:00) 14 7.78 (09:30) 5.83 (09:30) 0 0 0 0 0
27-03-2020 17.9 (18:10) 6.6 (00:00) 12.2 10.28 (14:40) 6.67 (11:10) 0 0 0 0 0
26-03-2020 22.8 (17:30) 11.6 (00:00) 17.2 10.83 (15:40) 6.67 (15:50) -- 0 0 -- 0
25-03-2020 -- (--) -- (--) -- -- (--) -- (--) 0 0 0 0 0
24-03-2020 21.6 (16:10) 9 (00:00) 15.3 13.33 (12:30) 9.72 (12:20) 0.2 0.2 0 0 0
23-03-2020 20 (15:20) 7.8 (00:00) 13.9 15 (18:40) 6.94 (18:40) 4 0 0 0 4
22-03-2020 18.5 (16:30) 8.5 (00:10) 13.5 6.67 (16:40) 4.17 (16:40) 2.2 0.5 1.7 0 0
21-03-2020 17.3 (13:40) 8.2 (00:00) 12.7 12.5 (03:00) 8.33 (03:00) 10.8 6.8 0 1 3
20-03-2020 20.7 (17:50) 10.4 (00:00) 15.6 6.11 (11:30) 3.89 (11:30) 1.3 0 0 1.1 0.2
19-03-2020 22.7 (14:40) 8.6 (00:00) 15.7 -- (--) -- (--) 0 0 0 0 0
18-03-2020 24.2 (16:40) 14.2 (00:00) 19.2 16.11 (09:10) 11.67 (09:10) 0 0 0 0 0
17-03-2020 20.4 (16:50) 8 (00:00) 14.2 11.39 (16:30) 7.5 (17:00) 0.4 0 0.4 0 0
16-03-2020 16.2 (00:00) 5.8 (00:00) 11 9.72 (04:10) 6.67 (04:10) 1.6 0.4 0 0 1.2
15-03-2020 23.6 (16:40) 8.1 (00:00) 15.9 -- (--) -- (--) 0 0 0 0 0
14-03-2020 22.3 (16:50) 11.3 (00:00) 16.8 5 (16:50) 3.33 (00:40) 0 0 0 0 0
13-03-2020 22.9 (17:30) 6.9 (08:00) 14.9 7.78 (18:10) 5 (18:10) 0 0 0 0 0
12-03-2020 26.9 (16:00) 8.8 (00:00) 17.8 9.72 (17:10) 6.39 (17:30) 0 0 0 0 0
11-03-2020 -- (--) -- (--) -- -- (--) -- (--) -- 0 0 -- 0
10-03-2020 29 (17:10) 6.4 (00:00) 17.7 -- (--) -- (--) 0 0 0 0 0
09-03-2020 23.8 (18:00) 3.9 (00:00) 13.8 7.78 (20:30) 3.89 (20:40) 0 0 0 0 0
08-03-2020 23.5 (16:40) 2.2 (00:00) 12.9 6.67 (10:40) 4.44 (17:50) 0 0 0 0 0
07-03-2020 20.4 (16:30) 2 (00:00) 11.2 8.33 (13:10) 5.83 (13:10) 0 0 0 0 0
06-03-2020 19.7 (16:40) 5.2 (00:00) 12.5 9.72 (12:40) 6.67 (13:20) 0 0 0 0 0
05-03-2020 19 (17:30) 5.6 (00:00) 12.3 9.72 (17:20) 6.94 (17:50) 0 0 0 0 0
04-03-2020 22.4 (14:50) 10.2 (00:00) 16.3 10.28 (15:50) 5.28 (15:00) 0 0 0 0 0
03-03-2020 17.6 (18:00) 6.1 (00:00) 11.9 8.89 (13:40) 5.83 (13:30) 0 0 0 0 0
02-03-2020 20.7 (15:20) 10.1 (00:00) 15.4 15.28 (10:10) 10.28 (06:40) 1.1 0.9 0.2 0 0

Gráficas

Temp. máximas Temp. mínimas Temp. medias Precipitaciones Rachas de viento máximas Velocidades máximas media en intervalos de 10 minutos

Datos horarios

Fecha y hora oficial Temperatura (ºC) Velocidad del viento (km/h) Dirección del viento Racha (km/h) Dirección de racha Precipitación (mm) Presión (hPa) Tendencia (hPa) Humedad (%)
2020-03-31 23:00:00 13.8 16 Sudoeste 26 Sudoeste 0 999.1 3.2 83
2020-03-31 22:00:00 14.3 12 Sudoeste 24 Sudoeste 0 998.2 3.2 85
2020-03-31 21:00:00 15 18 Sudoeste 28 Sudoeste 0 996.8 2.3 82
2020-03-31 20:00:00 16.8 19 Sudoeste 42 Sudoeste 0 995.9 2 76
2020-03-31 19:00:00 18.3 26 Sudoeste 39 Oeste 0 995 0.6 66
2020-03-31 18:00:00 17.9 22 Sudoeste 46 Sudoeste 0.4 994.5 0 74
2020-03-31 17:00:00 17.8 18 Oeste 35 Sudoeste 0 993.9 -0.8 73
2020-03-31 16:00:00 15.9 10 Oeste 33 Sur 0.2 994.4 -0.5 82
2020-03-31 15:00:00 17.1 19 Sudoeste 32 Sudoeste 0.1 994.5 -0.2 77
2020-03-31 14:00:00 15.6 9 Oeste 21 Oeste 1.4 994.7 0.2 86
2020-03-31 13:00:00 14.6 16 Oeste 32 Sudoeste 0.8 994.9 0.9 83
2020-03-31 12:00:00 15.9 19 Sudoeste 33 Sur 0 994.7 1.2 72
2020-03-31 11:00:00 15.1 22 Sur 33 Sur 0 994.5 1.3 76
2020-03-31 10:00:00 13.1 19 Sur 30 Sur 0 994 1.5 85
2020-03-31 09:00:00 12 15 Sur 22 Sur 0 993.5 1.1 90
2020-03-31 08:00:00 11.2 6 Sudeste 24 Nordeste 3.3 993.2 -0.2 94
2020-03-31 07:00:00 11.2 14 Nordeste 22 Nordeste 1 992.5 -2.2 94
2020-03-31 06:00:00 11.2 14 Nordeste 28 Nordeste 0 992.4 -2.5 95
2020-03-31 05:00:00 11 15 Nordeste 37 Este 2.8 993.4 -2.1 95
2020-03-31 04:00:00 11.1 10 Nordeste 17 Este 5.5 994.7 -1.8 95
2020-03-31 03:00:00 11 10 Nordeste 17 Nordeste 1.8 994.9 -2.2 93
2020-03-31 02:00:00 11 14 Nordeste 21 Este 1.8 995.5 -1.7 92
2020-03-31 01:00:00 11.4 10 Nordeste 15 Nordeste 2.2 996.5 -1 94
2020-03-31 00:00:00 11.5 9 Este 18 Este 0.8 997.1 -0.7 92
2020-03-30 23:00:00 11.4 10 Este 17 Nordeste 0 997.2 -0.8 91
2020-03-30 22:00:00 11.7 9 Sudeste 13 Sudeste 0 997.5 -0.2 91
2020-03-30 21:00:00 12 6 Oeste 21 Oeste 0.6 997.8 0.5 87
2020-03-30 20:00:00 12.7 11 Oeste 30 Noroeste 1.3 998 0.2 83
2020-03-30 19:00:00 12.9 23 Oeste 58 Oeste 1.6 997.7 -0.8 90
2020-03-30 18:00:00 17.5 14 Oeste 26 Oeste 0 997.3 -2.3 58
2020-03-30 17:00:00 17.7 15 Oeste 30 Sudoeste 0 997.8 -2.7 57
2020-03-30 16:00:00 19.1 12 Oeste 22 Oeste 0 998.5 -2.8 55
2020-03-30 15:00:00 18.6 12 Oeste 22 Oeste 0 999.6 -2.7 59
2020-03-30 14:00:00 17.3 10 Oeste 18 Oeste 0 1000.5 -2.4 65
2020-03-30 13:00:00 16.4 7 Sudoeste 17 Oeste 0 1001.3 -1.5 68
2020-03-30 12:00:00 14.9 5 Oeste 15 Noroeste 0 1002.3 -0.6 75
2020-03-30 11:00:00 13.3 8 Oeste 13 Oeste 0 1002.9 0.3 85
2020-03-30 10:00:00 12.3 4 Oeste 9 Noroeste 0 1002.8 0.2 90
2020-03-30 09:00:00 11.8 5 Oeste 11 Oeste 0 1002.9 0 93
2020-03-30 08:00:00 11.5 7 Oeste 13 Oeste 0 1002.6 -0.8 93
2020-03-30 07:00:00 11.1 6 Oeste 9 Oeste 0 1002.6 -1.3 91
2020-03-30 06:00:00 10.6 5 Oeste 9 Sudoeste 0 1002.9 -1.4 95
2020-03-30 05:00:00 9.6 6 Oeste 11 Sudoeste 0 1003.4 -1.1 93
2020-03-30 04:00:00 10.1 9 Oeste 13 Sudoeste 0 1003.9 -1.2 91
2020-03-30 03:00:00 10.8 7 Oeste 11 Oeste 0 1004.3 -0.9 90
2020-03-30 02:00:00 11.3 8 Sudoeste 13 Oeste 0 1004.5 -0.7 85
2020-03-30 01:00:00 12.1 10 Oeste 13 Sudoeste 0 1005.1 0.3 85
2020-03-30 00:00:00 13.3 10 Sudoeste 13 Sudoeste 0 1005.2 0.7 72
2020-03-29 23:00:00 14.3 4 Sur 8 Sudoeste 0 1005.2 0.6 67
2020-03-29 22:00:00 15.3 5 Sudoeste 9 Oeste 0 1004.8 0.1 64
2020-03-29 21:00:00 17 8 Oeste 15 Oeste 0 1004.5 -0.2 54
2020-03-29 20:00:00 19.1 12 Oeste 17 Oeste 0 1004.6 -0.6 44
2020-03-29 19:00:00 20 8 Oeste 15 Oeste 0 1004.7 -1.2 44
2020-03-29 18:00:00 21.9 7 Oeste 18 Oeste 0 1004.7 -2 35
2020-03-29 17:00:00 22 10 Oeste 18 Oeste 0 1005.2 -2.3 37
2020-03-29 16:00:00 20.9 8 Sudoeste 18 Oeste 0 1005.9 -2.3 43
2020-03-29 15:00:00 21.1 8 Sudoeste 18 Oeste 0 1006.7 -2.3 47
2020-03-29 14:00:00 19.3 5 Sudoeste 13 Sudoeste 0 1007.5 -1.6 54
2020-03-29 13:00:00 18.2 6 Sur 13 Oeste 0 1008.2 -0.8 59
2020-03-29 12:00:00 16.4 5 Sur 11 Sudeste 0 1009 0.2 63
2020-03-29 11:00:00 14.1 5 Este 11 Nordeste 0 1009.1 0.7 71
2020-03-29 10:00:00 11.2 8 Este 11 Este 0 1009 0.9 83
2020-03-29 09:00:00 8.4 5 Este 9 Este 0 1008.8 0.7 91
2020-03-29 08:00:00 7.9 6 Este 8 Este 0 1008.4 0.2 92
2020-03-29 07:00:00 7.5 2 Nordeste -- -- 0 1008.1 -0.5 92
2020-03-29 06:00:00 7.7 3 Sur 5 Sur 0 1008.1 -0.6 90
2020-03-29 05:00:00 8.6 4 Nordeste 5 Norte 0 1008.2 -0.5 90
2020-03-29 03:00:00 9 3 Oeste 9 Sur 0 1008.7 0.6 86
2020-03-29 01:00:00 9.8 5 Sudoeste 9 Oeste 0 1008.7 1.2 84
2020-03-29 00:00:00 10.9 6 Oeste 9 Oeste 0 1008.5 2 81
2020-03-28 23:00:00 11.7 9 Oeste 13 Oeste 0 1008.1 2.5 79
2020-03-28 22:00:00 13.5 12 Oeste 17 Oeste 0 1007.5 2.6 72
2020-03-28 21:00:00 14.1 9 Oeste 17 Oeste 0 1006.5 2 70
2020-03-28 20:00:00 15.8 6 Sur -- -- 0 1005.6 1.3 60
2020-03-28 19:00:00 19.8 9 Sudoeste 13 Sudoeste 0 1004.9 0.4 44
2020-03-28 18:00:00 21.3 8 Sur 18 Sudeste 0 1004.5 -0.4 35
2020-03-28 17:00:00 21.3 4 Nordeste 13 Este 0 1004.3 -1 34
2020-03-28 16:00:00 21.3 5 Sur 15 Oeste 0 1004.5 -1.3 35
2020-03-28 15:00:00 21.2 7 Oeste 17 Oeste 0 1004.9 -1.3 36
2020-03-28 14:00:00 19.3 8 Norte 17 Este 0 1005.3 -1 42
2020-03-28 13:00:00 18.4 7 Este 24 Nordeste 0 1005.8 -0.4 48
2020-03-28 12:00:00 16.2 17 Nordeste 26 Este 0 1006.2 0.6 54
2020-03-28 11:00:00 14.5 19 Este 28 Este 0 1006.3 1.1 58
2020-03-28 10:00:00 12.4 18 Este 28 Este 0 1006.2 1.8 62
2020-03-28 09:00:00 9.9 14 Este 22 Nordeste 0 1005.6 1.7 72
2020-03-28 08:00:00 7.1 15 Este 21 Este 0 1005.2 1.8 82
2020-03-28 07:00:00 6.3 13 Este 21 Este 0 1004.4 1.2 85
2020-03-28 06:00:00 7.1 15 Este 22 Este 0 1003.9 0.7 83
2020-03-28 05:00:00 7.2 13 Este 18 Este 0 1003.4 0.2 82
2020-03-28 04:00:00 7.5 12 Este 17 Este 0 1003.2 0.2 81
2020-03-28 03:00:00 8.2 11 Este 13 Este 0 1003.2 0.4 78
2020-03-28 02:00:00 10.2 6 Este 13 Nordeste 0 1003.2 1 69
2020-03-28 01:00:00 10.6 9 Este 13 Nordeste 0 1003 1.5 67
2020-03-28 00:00:00 12.1 11 Nordeste 21 Nordeste 0 1002.8 2.2 58
2020-03-27 23:00:00 12.2 13 Este 21 Norte 0 1002.2 2.6 60
2020-03-27 22:00:00 13.7 15 Nordeste 22 Nordeste 0 1001.5 2.5 54
2020-03-27 21:00:00 14.1 12 Nordeste 24 Nordeste 0 1000.6 2.2 56
2020-03-27 20:00:00 15.5 8 Norte 22 Norte 0 999.6 1.6 54
2020-03-27 19:00:00 16.4 10 Oeste 24 Oeste 0 999 0.6 55
2020-03-27 18:00:00 17.6 13 Oeste 24 Sudoeste 0 998.4 -0.2 51
2020-03-27 17:00:00 17.6 14 Oeste 32 Oeste 0 998 -1.1 49
2020-03-27 16:00:00 17.2 21 Oeste 37 Oeste 0 998.4 -1 51
2020-03-27 15:00:00 16.6 22 Oeste 37 Oeste 0 998.6 -1.1 54
2020-03-27 14:00:00 16.1 20 Oeste 35 Oeste 0 999.1 -0.8 58
2020-03-27 13:00:00 15.2 20 Oeste 33 Oeste 0 999.4 -0.4 60
2020-03-27 12:00:00 14 21 Oeste 35 Sudoeste 0 999.7 0.6 67
2020-03-27 11:00:00 12.8 18 Sudoeste 32 Sudoeste 0 999.9 1.5 77
2020-03-27 10:00:00 10.2 5 Noroeste 13 Sudoeste 0 999.8 1.9 92
2020-03-27 09:00:00 9.4 7 Sudoeste 15 Oeste 0 999.1 1.5 95
2020-03-27 08:00:00 8.4 6 Oeste 9 Oeste 0 998.4 1 95
2020-03-27 07:00:00 6.6 6 Sudoeste 8 Oeste 0 997.9 0.3 94
2020-03-27 06:00:00 6.9 3 Sudoeste -- -- 0 997.6 -0.2 92
2020-03-27 05:00:00 7.7 3 Oeste -- -- 0 997.4 -0.9 92
2020-03-27 04:00:00 8.6 0 Calma 9 Noroeste 0 997.6 -0.7 88
2020-03-27 03:00:00 9.1 6 Noroeste 9 Noroeste 0 997.8 -0.7 86
2020-03-27 02:00:00 10.4 5 Noroeste 11 Oeste 0 998.3 0 83
2020-03-27 01:00:00 11.1 4 Sudoeste 13 Sudoeste 0 998.3 0.2 78
2020-03-27 00:00:00 12.4 11 Sudoeste 21 Sudoeste 0 998.5 0.8 73
2020-03-26 23:00:00 12.7 8 Oeste 13 Sudoeste 0 998.3 1.2 67
2020-03-26 22:00:00 13.7 9 Sudoeste 15 Noroeste 0 998.1 1.5 65
2020-03-26 21:00:00 15.8 10 Noroeste 15 Noroeste 0 997.7 1.3 51
2020-03-26 20:00:00 17.8 12 Noroeste 26 Noroeste 0 997.1 0.5 44
2020-03-26 19:00:00 21.4 15 Noroeste 28 Noroeste 0 996.6 -0.6 32
2020-03-26 18:00:00 22.3 20 Noroeste 32 Noroeste 0 996.4 -1.4 26
2020-03-26 17:00:00 21.5 21 Sudoeste 39 Sudoeste 0 996.6 -2.2 47
2020-03-26 16:00:00 21.4 23 Sudoeste 39 Sudoeste 0 997.2 -- 52
2020-03-26 15:00:00 20.8 22 Oeste 37 Oeste 0 997.8 -2.9 56
2020-03-26 14:00:00 19.8 21 Sudoeste -- -- -- 998.8 -2.6 59
2020-03-26 13:00:00 -- -- -- -- -- -- -- -- --
2020-03-26 12:00:00 16.5 17 Sudoeste 30 Sudoeste 0 1000.7 -0.9 70
2020-03-26 11:00:00 15.6 13 Oeste -- -- -- 1001.4 -0.2 73
2020-03-26 10:00:00 14.1 15 Oeste 28 Sudoeste 0 1001.5 0.3 83
2020-03-26 09:00:00 12.9 16 Sudoeste 24 Sudoeste 0 1001.6 0.3 89
2020-03-26 08:00:00 12.3 13 Oeste 26 Sudoeste 0 1001.6 -0.1 89
2020-03-26 07:00:00 12.3 9 Sudoeste 18 Oeste 0 1001.2 -1 93
2020-03-26 06:00:00 12.2 11 Oeste 18 Oeste 0 1001.3 -1.4 93
2020-03-26 05:00:00 12.1 10 Oeste 24 Sudoeste 0 1001.7 -2.2 93
2020-03-26 04:00:00 12.4 14 Oeste 26 Sudoeste 0 1002.2 -1.7 92
2020-03-26 03:00:00 12.7 16 Sudoeste 22 Sudoeste 0 1002.7 -1.5 91
2020-03-26 02:00:00 12.8 12 Oeste 30 Sudoeste 0 1003.9 -0.5 88
2020-03-26 01:00:00 12.6 12 Sudoeste 21 Sudoeste 0 1003.9 -0.3 91
2020-03-26 00:00:00 11.6 9 Sudoeste 15 Sudoeste 0 1004.2 0.4 91
2020-03-25 23:00:00 12.3 12 Sudoeste 17 Sudoeste 0 1004.4 1.2 89
2020-03-25 22:00:00 13.2 10 Sudoeste 18 Sudoeste 0 1004.2 1.3 85
2020-03-25 21:00:00 13.6 10 Oeste 15 Oeste 0 1003.8 0.9 82
2020-03-25 20:00:00 14.7 10 Sudoeste 15 Sudoeste 0 1003.2 0.2 73
2020-03-25 19:00:00 17.8 12 Sudoeste 21 Sudoeste 0 1002.9 -0.3 60
2020-03-25 18:00:00 18.5 10 Sur 22 Sur 0 1002.9 -0.8 63
2020-03-25 17:00:00 18.3 13 Sur 22 Sur 0 1003 -1.5 62
2020-03-25 16:00:00 19.6 12 Sudoeste 24 Sudoeste 0 1003.2 -2 45
2020-03-25 15:00:00 20.8 11 Sudoeste 17 Sudoeste 0 1003.7 -1.8 42
2020-03-25 14:00:00 20.8 6 Sur 18 Sudeste 0 1004.5 -1.1 38
2020-03-25 13:00:00 20.5 9 Sur 15 Sur 0 1005.2 -0.3 45
2020-03-25 12:00:00 18.8 5 Sur -- -- -- 1005.5 0.4 47
2020-03-25 11:00:00 17.4 8 Este -- -- -- 1005.6 0.6 48
2020-03-25 10:00:00 16.2 10 Este 17 Este 0 1005.5 0.9 55
2020-03-25 09:00:00 12.1 3 Nordeste 5 Norte 0 1005.1 0.9 73
2020-03-25 08:00:00 10 0 Calma 8 Sudeste 0 1005 1.1 84
2020-03-25 07:00:00 8.9 2 Oeste 9 Este 0 1004.6 1.1 86
2020-03-25 06:00:00 9.7 8 Este 13 Este 0 1004.2 0.5 80
2020-03-25 05:00:00 10.3 4 Sudeste 17 Este 0 1003.9 0.4 79
2020-03-25 04:00:00 10.9 13 Este 17 Este 0 1003.5 0.1 80
2020-03-25 03:00:00 11.9 9 Este -- -- -- 1003.7 0.5 76
2020-03-25 02:00:00 12.8 12 Este 18 Este 0 1003.5 0.7 72
2020-03-25 01:00:00 13.1 13 Nordeste -- -- -- 1003.4 1.3 72
2020-03-25 00:00:00 14.1 10 Este -- -- -- 1003.2 2 67
2020-03-24 23:00:00 15.3 14 Este 33 Nordeste 0 1002.8 2.9 60
2020-03-24 22:00:00 13.9 14 Este 21 Este 0 1002.1 3 66
2020-03-24 21:00:00 14.5 10 Este 21 Este 0 1001.2 2.7 68
2020-03-24 20:00:00 17.4 17 Este 28 Este 0 999.9 1.7 55
2020-03-24 19:00:00 19 16 Este 30 Este 0 999.1 0.8 49
2020-03-24 18:00:00 19.9 20 Este 35 Este 0 998.5 0.1 48
2020-03-24 17:00:00 21.3 25 Este 41 Nordeste 0 998.2 -0.7 43
2020-03-24 16:00:00 21.2 27 Nordeste 37 Este 0 998.3 -1.1 44
2020-03-24 15:00:00 20.7 26 Nordeste 46 Este 0 998.4 -1.1 46
2020-03-24 14:00:00 20.3 29 Este 45 Nordeste 0 998.9 -0.6 47
2020-03-24 13:00:00 19.1 33 Este 48 Este 0 999.4 0.2 49
2020-03-24 12:00:00 17.6 25 Nordeste 39 Nordeste 0 999.5 0.4 55
2020-03-24 11:00:00 15.7 25 Este 41 Nordeste 0 999.5 0.4 60
2020-03-24 10:00:00 15.3 24 Este 33 Este 0 999.2 0.5 64
2020-03-24 09:00:00 13.1 21 Nordeste 30 Nordeste 0 999.1 0.4 75
2020-03-24 08:00:00 9.5 12 Este 17 Este 0 999.1 0.2 89
2020-03-24 07:00:00 9.3 14 Este 21 Este 0 998.7 -0.6 89
2020-03-24 06:00:00 9.4 14 Este 21 Este 0 998.7 -1.2 91
2020-03-24 05:00:00 9.5 13 Este 17 Este 0 998.9 -1.7 94
2020-03-24 04:00:00 9.8 12 Este 17 Este 0 999.3 -1.7 94
2020-03-24 03:00:00 10.3 12 Este 17 Este 0 999.9 -1.5 94
2020-03-24 02:00:00 10.5 11 Este 18 Este 0 1000.6 -1.4 92
2020-03-24 01:00:00 11.8 14 Este 26 Nordeste 0.2 1001 -0.7 90
2020-03-24 00:00:00 11.3 14 Nordeste 18 Este 0.1 1001.4 -0.4 93
2020-03-23 23:00:00 10.8 6 Sudeste 11 Este 0 1002 0.5 92
2020-03-23 22:00:00 11.1 8 Este 17 Este 0 1001.7 0.1 92
2020-03-23 21:00:00 11.2 9 Este 15 Norte 0 1001.8 2.5 92
2020-03-23 20:00:00 10.9 11 Norte 17 Norte 2.4 1001.5 2.5 91
2020-03-23 19:00:00 10.9 12 Sudeste 54 Este 1.5 1001.6 2.1 85
2020-03-23 18:00:00 17.5 8 Sur 11 Sur 0 999.3 -0.8 52
2020-03-23 17:00:00 18.4 9 Este 22 Nordeste 0 999 -1.9 45
2020-03-23 16:00:00 18.7 14 Este 28 Este 0 999.5 -2.3 47
2020-03-23 15:00:00 19.3 13 Nordeste 24 Nordeste 0 1000.1 -2.5 44
2020-03-23 14:00:00 17.5 10 Este 22 Nordeste 0 1000.9 -2.2 52
2020-03-23 13:00:00 17.5 14 Este 32 Nordeste 0 1001.8 -1.3 58
2020-03-23 12:00:00 16 20 Este 32 Este 0 1002.6 -0.2 61
2020-03-23 11:00:00 14 21 Este 30 Nordeste 0 1003.1 0.6 69
2020-03-23 10:00:00 13.1 15 Este 22 Este 0 1003.1 0.9 80
2020-03-23 09:00:00 10 7 Este 13 Este 0 1002.8 1.1 91
2020-03-23 08:00:00 8.6 8 Este 11 Sudeste 0 1002.5 0.7 95
2020-03-23 07:00:00 7.9 7 Este 13 Este 0 1002.2 0.5 94
2020-03-23 06:00:00 8.6 9 Este 13 Este 0 1001.7 -0.2 94
2020-03-23 05:00:00 8.8 -- -- -- -- 0 1001.8 -0.3 94
2020-03-23 04:00:00 8.9 9 Nordeste 11 Este 0 1001.7 -0.6 94
2020-03-23 03:00:00 9 0 Calma 5 Sudeste 0 1001.9 -0.6 95
2020-03-23 02:00:00 8.6 0 Calma 4 Sur 0 1002.1 -0.2 93
2020-03-23 01:00:00 9 3 Sudoeste 5 Sur 0 1002.3 0.3 93
2020-03-23 00:00:00 9.4 5 Sudoeste 8 Sudoeste 0 1002.5 0.8 93
2020-03-22 23:00:00 9.9 0 Calma 5 Sudeste 0 1002.3 1.3 89
2020-03-22 22:00:00 10.6 5 Sudeste 11 Sur 0 1002 1.5 87
2020-03-22 21:00:00 11 -- -- -- -- 0 1001.7 1.9 85
2020-03-22 20:00:00 11.8 8 Sur 13 Sudeste 0 1001 1.5 80
2020-03-22 19:00:00 13.3 6 Sudoeste 15 Noroeste 0 1000.5 1 76
2020-03-22 18:00:00 14.1 10 Oeste 21 Oeste 0 999.8 0 68
2020-03-22 17:00:00 16.4 13 Noroeste 24 Noroeste 0 999.5 -1 58
2020-03-22 16:00:00 17.6 4 Sudeste 13 Sur 0 999.5 -1.7 47
2020-03-22 15:00:00 17.3 6 Sudeste 17 Sudeste 0 999.8 -1.8 51
2020-03-22 14:00:00 14.4 6 Norte 15 Norte 0 1000.5 -1 64
2020-03-22 13:00:00 13.5 9 Este 21 Este 0 1001.2 0.2 77
2020-03-22 12:00:00 12.7 11 Este 17 Este 0.1 1001.6 1.1 84
2020-03-22 11:00:00 11.6 7 Sudeste 11 Sudeste 0 1001.5 1.2 86
2020-03-22 10:00:00 10.8 7 Sudeste 13 Nordeste 0 1001 1 89
2020-03-22 09:00:00 9.8 9 Nordeste 15 Este 0.7 1000.5 0.7 93
2020-03-22 08:00:00 9.1 13 Nordeste 18 Nordeste 0 1000.3 0.7 93
2020-03-22 07:00:00 9.1 10 Nordeste 15 Nordeste 0.9 1000 0.5 94
2020-03-22 06:00:00 8.8 6 Sudeste 9 Sudeste 0 999.8 -0.3 94
2020-03-22 05:00:00 8.9 6 Este 11 Este 0 999.6 -1.1 94
2020-03-22 04:00:00 9 8 Este 15 Nordeste 0.1 999.5 -1.3 94
2020-03-22 03:00:00 9 10 Este 15 Este 0.1 1000.1 -1.1 94
2020-03-22 02:00:00 9 8 Este 17 Nordeste 0.3 1000.7 -0.7 94
2020-03-22 01:00:00 8.6 7 Nordeste 11 Nordeste 0 1000.8 -0.4 94
2020-03-22 00:00:00 8.7 8 Nordeste 11 Nordeste 0 1001.2 0.5 94
2020-03-21 23:00:00 8.2 6 Nordeste 11 Norte 0 1001.4 1.1 92
2020-03-21 22:00:00 9.6 4 Sur 13 Noroeste 0 1001.2 1.6 83
2020-03-21 21:00:00 9.9 3 Norte 15 Oeste 0 1000.7 1.3 88
2020-03-21 20:00:00 10.3 8 Oeste 32 Noroeste 3 1000.3 0.3 83
2020-03-21 19:00:00 12.2 8 Este 18 Este 0 999.6 -1.1 86
2020-03-21 18:00:00 12.7 11 Este 15 Este 0.2 999.4 -1.3 85
2020-03-21 17:00:00 12 3 Nordeste 21 Oeste 0.8 1000 -1.1 86
2020-03-21 16:00:00 12.8 18 Oeste 35 Oeste 0 1000.7 -1.3 80
2020-03-21 15:00:00 14 24 Oeste 39 Sudoeste 0 1000.7 -2.3 67
2020-03-21 14:00:00 16.2 6 Oeste 15 Noroeste 0 1001.1 -2.1 60
2020-03-21 13:00:00 16.4 5 Noroeste 11 Noroeste 0 1002 -1.3 62
2020-03-21 12:00:00 15.1 8 Oeste 15 Oeste 0 1003 -0.2 69
2020-03-21 11:00:00 14.2 8 Noroeste 15 Sudoeste 0 1003.2 0.4 75
2020-03-21 10:00:00 11.4 11 Sudoeste 18 Sudoeste 0 1003.3 1 86
2020-03-21 09:00:00 10.9 11 Sudoeste 15 Sur 0 1003.2 1.1 90
2020-03-21 08:00:00 10.7 8 Sudoeste 17 Sudoeste 0 1002.8 0.8 93
2020-03-21 07:00:00 10.7 13 Sudoeste 26 Sur 0 1002.3 0.4 93
2020-03-21 06:00:00 10.6 6 Sur 18 Oeste 0.1 1002.1 0.5 94
2020-03-21 05:00:00 10.6 9 Sudoeste 33 Sudoeste 1.9 1002 1 93
2020-03-21 04:00:00 11.2 23 Sudoeste 41 Sudoeste 2.9 1001.9 0.2 93
2020-03-21 03:00:00 13.3 30 Sudoeste 45 Sudoeste 1.7 1001.6 -0.6 88
2020-03-21 02:00:00 14.2 6 Oeste -- -- -- 1001 -1.2 83
2020-03-21 01:00:00 14.6 13 Sudoeste 28 Sudoeste 0.2 1001.7 -0.4 77
2020-03-21 00:00:00 14.9 3 Nordeste 13 Norte 0.2 1002.2 0.7 74
2020-03-20 23:00:00 14.9 4 Norte 11 Este 0 1002.2 1.2 72
2020-03-20 22:00:00 14.7 8 Este 17 Sur 0 1002.1 1.2 72
2020-03-20 21:00:00 14.5 2 Sudoeste 11 Sudeste 0 1001.5 0.4 79
2020-03-20 20:00:00 16.4 4 Sudeste 8 Este 0 1001 -0.3 74
2020-03-20 19:00:00 18.5 7 Este 9 Este 0 1000.9 -1.3 63
2020-03-20 18:00:00 20.7 4 Sur 11 Sudeste 0 1001.1 -1.8 52
2020-03-20 17:00:00 19.6 8 Norte 18 Norte 0 1001.3 -2.4 55
2020-03-20 16:00:00 18.8 4 Norte 11 Norte 0 1002.2 -1.8 59
2020-03-20 15:00:00 16.6 8 Norte 15 Sur 0.2 1002.9 -1.5 77
2020-03-20 14:00:00 17.7 9 Sudeste 17 Sudeste 0.9 1003.7 -0.9 64
2020-03-20 13:00:00 18.4 9 Este 22 Este 0 1004 -0.9 54
2020-03-20 12:00:00 18.5 10 Nordeste 22 Este 0 1004.4 -0.3 59
2020-03-20 11:00:00 17 12 Nordeste 18 Nordeste 0 1004.6 0.5 62
2020-03-20 10:00:00 15.3 9 Este 15 Este 0 1004.9 1.1 72
2020-03-20 09:00:00 12.8 6 Este 11 Este 0 1004.7 1.1 85
2020-03-20 08:00:00 10.5 6 Este 11 Este 0 1004.1 0.5 89
2020-03-20 07:00:00 11.1 4 Este 11 Este 0 1003.8 0 88
2020-03-20 06:00:00 11.6 7 Sur 11 Nordeste 0 1003.6 -0.5 86
2020-03-20 05:00:00 12.4 8 Sudeste 11 Sudeste 0 1003.6 -1.1 85
2020-03-20 04:00:00 12.1 2 Norte 8 Nordeste 0 1003.8 -0.9 84
2020-03-20 03:00:00 12.5 5 Nordeste 8 Este 0 1004.1 -0.7 82
2020-03-20 02:00:00 13.4 2 Sudeste 8 Sur 0 1004.7 0.1 80
2020-03-20 01:00:00 13.9 6 Sudoeste 13 Oeste 0 1004.7 0.7 77
2020-03-20 00:00:00 13.9 8 Oeste 17 Oeste 0 1004.8 -- 75
2020-03-19 23:00:00 13.7 9 Sudoeste 15 Sudoeste 0 1004.6 1 76
2020-03-19 22:00:00 13.9 7 Sudoeste 11 Sudoeste 0 1004 0.6 77
2020-03-19 21:00:00 -- -- -- -- -- -- -- -- --
2020-03-19 20:00:00 16.8 8 Oeste 13 Sur 0 1003.6 0.2 66
2020-03-19 19:00:00 20 11 Sur 18 Sur 0 1003.4 -0.6 52
2020-03-19 18:00:00 21.4 9 Este 17 Este 0 1003.1 -1.6 42
2020-03-19 17:00:00 22.4 13 Este -- -- -- 1003.4 -2.2 38
2020-03-19 16:00:00 21.5 13 Este 24 Nordeste 0 1004 -2.6 41
2020-03-19 15:00:00 22.4 14 Este 28 Nordeste 0 1004.7 -2.8 40
2020-03-19 14:00:00 21 10 Este 22 Nordeste 0 1005.6 -2.5 48
2020-03-19 13:00:00 19.8 17 Nordeste 30 Nordeste 0 1006.6 -1.7 47
2020-03-19 12:00:00 17.6 17 Nordeste 24 Nordeste 0 1007.5 -0.9 57
2020-03-19 11:00:00 16.3 16 Este 22 Nordeste 0 1008.1 -0.1 61
2020-03-19 10:00:00 13.3 10 Este 18 Este 0 1008.3 0.2 77
2020-03-19 09:00:00 11.5 11 Este 17 Este 0 1008.4 0.3 88
2020-03-19 08:00:00 8.8 0 Calma 4 Sur 0 1008.2 0.1 92
2020-03-19 07:00:00 9 0 Calma 5 Sudeste 0 1008.1 -0.2 91
2020-03-19 06:00:00 9.9 5 Nordeste 13 Oeste 0 1008.1 -0.4 91
2020-03-19 05:00:00 10 3 Norte -- -- 0 1008.1 -0.6 88
2020-03-19 04:00:00 11.2 3 Nordeste 5 Nordeste 0 1008.3 -0.2 85
2020-03-19 03:00:00 12.3 0 Calma -- -- -- 1008.5 0.1 79
2020-03-19 02:00:00 12.4 3 Noroeste 15 Sudeste 0 1008.7 0.5 76
2020-03-19 01:00:00 14.1 8 Sudeste 15 Sudeste 0 1008.5 0.7 66
2020-03-19 00:00:00 14.2 7 Sudeste -- -- -- 1008.4 1.2 66
2020-03-18 23:00:00 16.2 13 Este 21 Este 0 1008.2 1.8 59
2020-03-18 22:00:00 17.6 14 Este 21 Este 0 1007.8 1.8 56
2020-03-18 21:00:00 19.3 14 Este 21 Este 0 1007.2 1.1 47
2020-03-18 20:00:00 20.5 14 Nordeste 28 Nordeste 0 1006.4 0.2 41
2020-03-18 19:00:00 22.3 19 Nordeste 33 Nordeste 0 1006 -0.6 36
2020-03-18 18:00:00 23.5 24 Nordeste 37 Este 0 1006.1 -1.1 32
2020-03-18 17:00:00 23.9 23 Este 45 Nordeste 0 1006.2 -1.9 32
2020-03-18 16:00:00 23.9 26 Nordeste 41 Este 0 1006.6 -2.3 32
2020-03-18 15:00:00 23.4 29 Nordeste 45 Nordeste 0 1007.2 -2.2 35
2020-03-18 14:00:00 22.7 31 Nordeste 45 Este 0 1008.1 -1.5 35
2020-03-18 13:00:00 21.9 31 Nordeste 50 Este 0 1008.9 -0.4 39
2020-03-18 12:00:00 20.6 30 Nordeste 52 Nordeste 0 1009.4 0.7 44
2020-03-18 11:00:00 18.4 32 Nordeste 52 Este 0 1009.6 1 50
2020-03-18 10:00:00 16.9 33 Nordeste 58 Este 0 1009.3 0.9 54
2020-03-18 09:00:00 16.3 35 Nordeste 54 Nordeste 0 1008.7 0.9 55
2020-03-18 08:00:00 15.8 28 Nordeste 41 Este 0 1008.6 0.6 58
2020-03-18 07:00:00 15.9 27 Nordeste 46 Nordeste 0 1008.4 0.3 58
2020-03-18 06:00:00 15.8 31 Nordeste 45 Nordeste 0 1007.8 -0.7 59
2020-03-18 05:00:00 15.8 24 Este 35 Nordeste 0 1008 -0.4 60
2020-03-18 04:00:00 15.5 18 Este 33 Este 0 1008.1 -0.4 64
2020-03-18 03:00:00 15.9 23 Nordeste 42 Nordeste 0 1008.5 0.4 65
2020-03-18 02:00:00 15.3 26 Nordeste 39 Nordeste 0 1008.4 0 71
2020-03-18 01:00:00 14.5 15 Este 28 Este 0 1008.5 -0.6 72
2020-03-18 00:00:00 14.7 19 Este 32 Este 0 1008.1 -0.8 69
2020-03-17 23:00:00 14.1 20 Este 33 Nordeste 0 1008.4 -0.1 67
2020-03-17 22:00:00 14.8 15 Nordeste 26 Nordeste 0 1009.1 0.6 60
2020-03-17 21:00:00 15.7 17 Nordeste 32 Nordeste 0 1008.9 0.5 55
2020-03-17 20:00:00 14.8 6 Este 13 Norte 0 1008.5 0.6 70
2020-03-17 19:00:00 16.2 6 Norte 13 Sudeste 0 1008.5 0.5 66
2020-03-17 18:00:00 18.4 8 Este 32 Este 0 1008.4 0 44
2020-03-17 17:00:00 19.7 27 Este 41 Este 0 1007.9 -1.2 33
2020-03-17 16:00:00 19.6 20 Este 30 Este 0 1008 -1.9 34
2020-03-17 15:00:00 17.8 21 Este 39 Este 0 1008.4 -1.6 41
2020-03-17 14:00:00 17.7 23 Nordeste 37 Este 0 1009.1 -0.9 40
2020-03-17 13:00:00 15.6 21 Este 33 Nordeste 0 1009.9 0.2 51
2020-03-17 12:00:00 14.7 26 Este 37 Este 0 1010 1 57
2020-03-17 11:00:00 12.3 19 Este 32 Este 0 1010 1.6 66
2020-03-17 10:00:00 11.4 19 Nordeste 26 Nordeste 0 1009.7 1.7 75
2020-03-17 09:00:00 9.1 10 Nordeste 15 Nordeste 0 1009 1.8 86
2020-03-17 08:00:00 8.2 4 Nordeste 8 Este 0 1008.4 2 93
2020-03-17 07:00:00 8.1 0 Calma 13 Sudeste 0.4 1008 1.6 92
2020-03-17 06:00:00 8.1 8 Este 17 Este 0 1007.2 0.7 91
2020-03-17 05:00:00 8 12 Nordeste 21 Este 0 1006.4 -0.1 92
2020-03-17 04:00:00 8.1 13 Nordeste 18 Nordeste 0 1006.4 0.3 93
2020-03-17 03:00:00 8.1 10 Este 17 Este 0 1006.5 0.3 92
2020-03-17 02:00:00 8 10 Este 18 Este 0 1006.5 0.5 90
2020-03-17 01:00:00 8.1 7 Este 11 Este 0 1006.1 0.6 92
2020-03-17 00:00:00 8.1 5 Este 9 Este 0 1006.2 1.2 92
2020-03-16 23:00:00 7.9 3 Noroeste 13 Nordeste 0.6 1006 1.8 89
2020-03-16 22:00:00 8.7 10 Sur 17 Este 0.3 1005.5 1.6 88
2020-03-16 21:00:00 9.1 12 Norte 18 Norte 0 1005 1.4 84
2020-03-16 20:00:00 9.1 10 Sur 15 Sur 0 1004.2 0.8 83
2020-03-16 19:00:00 9.1 4 Sudeste 30 Norte 0.3 1003.9 0.4 84
2020-03-16 18:00:00 11.1 7 Este 17 Sudoeste 0 1003.6 0.1 66
2020-03-16 17:00:00 12.3 10 Oeste 24 Noroeste 0 1003.4 -0.5 54
2020-03-16 16:00:00 12.2 16 Noroeste 26 Noroeste 0 1003.5 -0.5 53
2020-03-16 15:00:00 12.6 12 Oeste 28 Noroeste 0 1003.5 -0.9 44
2020-03-16 14:00:00 13.1 15 Oeste 28 Oeste 0 1003.9 -1.2 45
2020-03-16 13:00:00 13.2 15 Noroeste 30 Oeste 0 1004 -1.2 44
2020-03-16 12:00:00 13.9 8 Sur 28 Sur 0 1004.4 -1 48
2020-03-16 11:00:00 11.9 8 Noroeste 24 Oeste 0 1005.1 0 50
2020-03-16 10:00:00 10.6 13 Sudoeste 24 Sudoeste 0 1005.2 1 60
2020-03-16 09:00:00 8.3 12 Oeste 21 Sudoeste 0 1005.4 1.8 70
2020-03-16 08:00:00 5.9 12 Oeste 18 Oeste 0 1005.1 2.3 77
2020-03-16 07:00:00 7.6 9 Oeste 21 Noroeste 0 1004.2 1.7 66
2020-03-16 06:00:00 8.7 5 Noroeste 21 Oeste 0 1003.6 1.1 73
2020-03-16 05:00:00 9.3 9 Oeste 35 Noroeste 0.4 1002.8 0.5 71
2020-03-16 04:00:00 11.9 19 Noroeste 32 Oeste 0 1002.5 0.4 60
2020-03-16 03:00:00 13.7 18 Noroeste 32 Noroeste 0 1002.5 0.3 54
2020-03-16 02:00:00 15.2 15 Oeste 22 Noroeste 0 1002.3 -0.2 60
2020-03-16 01:00:00 15.9 17 Oeste 32 Sudoeste 0 1002.1 -0.1 70
2020-03-16 00:00:00 16.2 19 Oeste 30 Oeste 0 1002.2 0.2 73
2020-03-15 23:00:00 16.7 17 Sudoeste 32 Sudoeste 0 1002.5 1.1 70
2020-03-15 22:00:00 15.9 6 Oeste 9 Oeste 0 1002.2 1.2 70
2020-03-15 21:00:00 16.9 4 Sudoeste 15 Sudoeste 0 1002 0.4 68
2020-03-15 20:00:00 19.1 9 Oeste 22 Sudoeste 0 1001.4 -0.6 61
2020-03-15 19:00:00 20.9 18 Sudoeste 32 Sudoeste 0 1001 -1.6 54
2020-03-15 18:00:00 22.3 19 Sudoeste 30 Sudoeste 0 1001.6 -1.8 51
2020-03-15 17:00:00 23.3 16 Sudoeste 28 Sudoeste 0 1002 -2.4 49
2020-03-15 16:00:00 23.2 15 Sudoeste 28 Oeste 0 1002.6 -2.7 50
2020-03-15 15:00:00 22.5 12 Sudoeste 22 Sudoeste 0 1003.4 -2.7 51
2020-03-15 14:00:00 22.1 12 Sur 21 Sudoeste 0 1004.4 -2.3 51
2020-03-15 13:00:00 20.3 3 Noroeste 13 Nordeste 0 1005.3 -1.4 58
2020-03-15 12:00:00 18.1 4 Este 9 Este 0 1006.1 -0.6 66
2020-03-15 11:00:00 15.8 4 Este 9 Este 0 1006.7 0.6 76
2020-03-15 10:00:00 13.2 6 Este 9 Este 0 1006.7 0.7 89
2020-03-15 09:00:00 10 0 Calma 5 Sudoeste 0 1006.7 0.7 94
2020-03-15 08:00:00 8.3 -- -- -- -- 0 1006.1 0.4 93
2020-03-15 07:00:00 8.6 3 Sur 8 Noroeste 0 1006 0.6 93
2020-03-15 06:00:00 8.5 5 Sudoeste -- -- 0 1006 -0.2 92
2020-03-15 05:00:00 9 -- -- -- -- 0 1005.7 -0.8 92
2020-03-15 04:00:00 9.3 2 Sudoeste -- -- 0 1005.4 -1.2 92
2020-03-15 03:00:00 10.2 5 Sur 8 Sur 0 1006.2 -0.4 92
2020-03-15 02:00:00 10.7 3 Noroeste 5 Sur 0 1006.5 0.2 91
2020-03-15 01:00:00 11.6 4 Norte 5 Norte 0 1006.6 0.4 89
2020-03-15 00:00:00 12.9 0 Calma 9 Sudoeste 0 1006.6 0.6 88
2020-03-14 23:00:00 13.9 8 Sudoeste -- -- 0 1006.3 0.5 86
2020-03-14 22:00:00 14.5 5 Sur 8 Sur 0 1006.2 0.6 80
2020-03-14 21:00:00 16.1 7 Sur 9 Oeste 0 1006 0.4 80
2020-03-14 20:00:00 17.9 7 Oeste 15 Oeste 0 1005.8 0 71
2020-03-14 19:00:00 21 9 Oeste 17 Oeste 0 1005.6 -0.8 63
2020-03-14 18:00:00 22.2 11 Oeste 18 Oeste 0 1005.6 -1.6 60
2020-03-14 17:00:00 22.3 12 Oeste 18 Sudoeste 0 1005.8 -2.7 60
2020-03-14 16:00:00 21.5 11 Oeste 17 Oeste 0 1006.4 -3.1 62
2020-03-14 15:00:00 20 9 Oeste 15 Oeste 0 1007.2 -2.7 68
2020-03-14 14:00:00 17.1 8 Oeste 13 Oeste 0 1008.5 -1.6 78
2020-03-14 13:00:00 14.7 6 Sudoeste 9 Sudoeste 0 1009.5 -0.3 87
2020-03-14 12:00:00 13.8 0 Calma 11 Sudoeste 0 1009.9 0.5 91
2020-03-14 11:00:00 12.9 2 Oeste 9 Sudoeste 0 1010.1 1.3 96
2020-03-14 10:00:00 12.5 3 Oeste 8 Oeste 0 1009.8 1.4 97
2020-03-14 09:00:00 12.1 3 Sur 9 Sudoeste 0 1009.4 1.3 97
2020-03-14 08:00:00 12.1 4 Sudoeste 9 Sudoeste 0 1008.8 1.1 97
2020-03-14 07:00:00 12.1 7 Sudoeste 11 Oeste 0 1008.4 0.5 96
2020-03-14 06:00:00 12.4 8 Sudoeste 13 Oeste 0 1008.1 0.1 96
2020-03-14 05:00:00 12.8 9 Sudoeste 15 Sudoeste 0 1007.7 -0.4 95
2020-03-14 04:00:00 12.3 6 Oeste 11 Oeste 0 1007.9 0 95
2020-03-14 03:00:00 11.5 9 Sudoeste -- -- 0 1008 0.4 93
2020-03-14 02:00:00 12.3 9 Oeste 13 Oeste 0 1008.1 0.9 92
2020-03-14 01:00:00 13.3 9 Sudoeste 15 Oeste 0 1007.9 1.1 90
2020-03-14 00:00:00 13.8 10 Sudoeste 13 Sudoeste 0 1007.6 1.4 87
2020-03-13 23:00:00 14.4 5 Oeste 11 Sudoeste 0 1007.2 1.6 82
2020-03-13 22:00:00 15.2 9 Sudoeste 11 Sudoeste 0 1006.8 1.5 80
2020-03-13 21:00:00 16.1 5 Sur 13 Oeste 0 1006.2 1.3 77
2020-03-13 20:00:00 18.1 11 Oeste 22 Oeste 0 1005.6 0.6 69
2020-03-13 19:00:00 21.1 15 Oeste 28 Oeste 0 1005.3 -0.2 57
2020-03-13 18:00:00 22.6 16 Oeste 24 Oeste 0 1004.9 -1.1 55
2020-03-13 17:00:00 22.8 15 Sudoeste 24 Sudoeste 0 1005 -2.1 53
2020-03-13 16:00:00 21.8 15 Sudoeste 24 Sudoeste 0 1005.5 -2.5 54
2020-03-13 15:00:00 20.8 15 Sudoeste 22 Sudoeste 0 1006 -2.5 59
2020-03-13 14:00:00 18.2 11 Oeste 21 Oeste 0 1007.1 -1.6 71
2020-03-13 13:00:00 14.7 11 Oeste 18 Oeste 0 1008 -0.6 84
2020-03-13 12:00:00 14 13 Sudoeste 21 Sudoeste 0 1008.5 0.5 87
2020-03-13 11:00:00 13.2 9 Sudoeste 15 Sudoeste 0 1008.7 1.2 91
2020-03-13 10:00:00 11.5 6 Sudoeste 9 Sur 0 1008.6 1.5 91
2020-03-13 09:00:00 9.3 4 Oeste 8 Oeste 0 1008 1.2 94
2020-03-13 08:00:00 6.9 -- -- -- -- 0 1007.5 0.6 93
2020-03-13 07:00:00 7.7 -- -- -- -- 0 1007.1 0.2 91
2020-03-13 06:00:00 8.6 0 Calma 4 Sur 0 1006.8 -0.5 92
2020-03-13 05:00:00 8.8 3 Sur 5 Sur 0 1006.9 -0.5 91
2020-03-13 04:00:00 9.3 4 Sudoeste 8 Sudoeste 0 1006.9 -0.8 91
2020-03-13 03:00:00 10 5 Sudoeste 8 Sudoeste 0 1007.3 -0.3 86
2020-03-13 02:00:00 11.7 5 Sur 9 Sur 0 1007.4 0.1 84
2020-03-13 01:00:00 13.1 4 Sudoeste 13 Oeste 0 1007.7 0.8 82
2020-03-13 00:00:00 14.3 9 Oeste 13 Oeste 0 1007.6 1.1 77
2020-03-12 23:00:00 16.3 9 Oeste 17 Sudoeste 0 1007.3 1.3 71
2020-03-12 22:00:00 17 10 Sudoeste 13 Sudoeste 0 1006.9 1.2 70
2020-03-12 21:00:00 17.2 11 Oeste 13 Oeste 0 1006.5 0.9 69
2020-03-12 20:00:00 19.7 10 Sudoeste 24 Oeste 0 1006 0.4 62
2020-03-12 19:00:00 22.8 15 Oeste 26 Oeste 0 1005.7 0 48
2020-03-12 18:00:00 25 18 Oeste 35 Oeste 0 1005.6 -0.9 40
2020-03-12 17:00:00 26.2 22 Oeste 30 Sudoeste 0 1005.6 -1.9 33
2020-03-12 16:00:00 26.7 15 Sudoeste 22 Sudoeste 0 1005.7 -2.9 34
2020-03-12 15:00:00 26.4 11 Oeste 17 Oeste 0 1006.5 -2.8 38
2020-03-12 14:00:00 25.9 6 Sudoeste 15 Oeste 0 1007.5 -2.1 37
2020-03-12 13:00:00 24.3 4 Noroeste 11 Este 0 1008.6 -1 38
2020-03-12 12:00:00 21.7 8 Este 13 Este 0 1009.3 0.1 49
2020-03-12 11:00:00 18.7 8 Este 11 Este 0 1009.6 1.1 58
2020-03-12 10:00:00 15.7 6 Este 9 Este 0 1009.6 1.4 69
2020-03-12 09:00:00 11.8 0 Calma 9 Este 0 1009.2 1.1 86
2020-03-12 08:00:00 9.4 5 Este 8 Este 0 1008.5 0.3 87
2020-03-12 07:00:00 9.5 2 Sudeste 9 Este 0 1008.2 -0.4 86
2020-03-12 06:00:00 9.6 5 Sudeste 13 Sudeste 0 1008.1 -0.7 87
2020-03-12 05:00:00 9.5 5 Nordeste 8 Nordeste 0 1008.2 -0.8 87
2020-03-12 04:00:00 10.6 4 Sudoeste 9 Oeste 0 1008.6 -0.7 86
2020-03-12 03:00:00 12.9 4 Oeste 18 Este 0 1008.8 -0.8 74
2020-03-12 02:00:00 14.3 14 Este 18 Este 0 1009 -0.5 73
2020-03-12 01:00:00 13.7 11 Este 17 Este 0 1009.3 -0.1 76
2020-03-12 00:00:00 15 4 Este 13 Este 0 1009.6 0.6 71
2020-03-11 23:00:00 15.6 9 Este 11 Este 0 1009.5 -- 69
2020-03-11 22:00:00 17.2 3 Sudeste 8 Nordeste 0 1009.4 0.8 68
2020-03-11 21:00:00 19.2 0 Calma 5 Norte 0 1009 -- 61
2020-03-11 20:00:00 -- -- -- -- -- -- -- -- --
2020-03-11 19:00:00 26 2 Sudeste 9 Sur 0 1008.6 -0.8 48
2020-03-11 18:00:00 -- -- -- -- -- -- -- -- --
2020-03-11 17:00:00 28.2 5 Oeste 11 Oeste 0 1009 -2.1 30
2020-03-11 16:00:00 28.6 5 Sudoeste -- -- -- 1009.4 -2.5 30
2020-03-11 15:00:00 28.4 5 Oeste 13 Sudoeste 0 1010 -2.9 29
2020-03-11 14:00:00 26.5 4 Sudoeste -- -- -- 1011.1 -2 33
2020-03-11 13:00:00 24.3 12 Este 24 Este 0 1011.9 -1.5 36
2020-03-11 12:00:00 22.2 16 Este 22 Este 0 1012.9 -0.6 41
2020-03-11 11:00:00 19.8 16 Este 26 Este 0 1013.1 0 51
2020-03-11 10:00:00 16 13 Este -- -- -- 1013.4 0.5 65
2020-03-11 09:00:00 12.2 4 Este 11 Sudeste 0 1013.5 0.8 80
2020-03-11 08:00:00 7.9 0 Calma 8 Este 0 1013.1 0.5 90
2020-03-11 07:00:00 8 -- -- -- -- 0 1012.9 -0.1 88
2020-03-11 06:00:00 8.3 9 Este 13 Este 0 1012.7 -0.6 88
2020-03-11 05:00:00 8 4 Sur 5 Sur 0 1012.6 -0.8 88
2020-03-11 04:00:00 8.2 8 Norte 9 Norte 0 1013 -0.8 87
2020-03-11 03:00:00 9 3 Sudeste 8 Sudoeste 0 1013.3 -0.6 86
2020-03-11 02:00:00 9.9 2 Sur -- -- -- 1013.4 -0.4 82
2020-03-11 01:00:00 10.4 6 Sur 9 Sudoeste 0 1013.8 0.2 82
2020-03-11 00:00:00 11.8 3 Sudeste 11 Noroeste 0 1013.9 0.5 78
2020-03-10 23:00:00 12.7 7 Sudoeste -- -- 0 1013.8 0.6 77
2020-03-10 22:00:00 15.1 0 Calma 5 Sudoeste 0 1013.6 0.8 66
2020-03-10 21:00:00 17.5 0 Calma 5 Sur 0 1013.4 0.8 62
2020-03-10 20:00:00 20.7 7 Noroeste -- -- 0 1013.2 0.5 48
2020-03-10 19:00:00 25.9 3 Sur 15 Sudeste 0 1012.8 -0.5 35
2020-03-10 18:00:00 26.9 9 Sudeste 15 Sudeste 0 1012.6 -1.3 29
2020-03-10 17:00:00 28.8 3 Este 13 Este 0 1012.7 -2.3 25
2020-03-10 16:00:00 26.8 9 Este 17 Este 0 1013.3 -2.8 27
2020-03-10 15:00:00 25.7 11 Este -- -- -- 1013.9 -2.5 28
2020-03-10 14:00:00 24.5 17 Este 24 Este 0 1015 -1.7 29
2020-03-10 13:00:00 23.1 13 Este 28 Este 0 1016.1 -0.4 29
2020-03-10 12:00:00 21.5 19 Nordeste 28 Nordeste 0 1016.4 0.4 31
2020-03-10 11:00:00 17.7 7 Sudeste 17 Nordeste 0 1016.7 1.3 49
2020-03-10 10:00:00 14.7 11 Este 18 Este 0 1016.5 1.8 55
2020-03-10 09:00:00 11.1 0 Calma 4 Sudeste 0 1016 1.3 78
2020-03-10 08:00:00 6.6 0 Calma -- -- -- 1015.4 0.6 85
2020-03-10 07:00:00 7.3 3 Este 8 Este 0 1014.7 0.2 85
2020-03-10 06:00:00 8.1 3 Este 9 Nordeste 0 1014.7 0.1 81
2020-03-10 05:00:00 8.1 6 Norte 9 Norte 0 1014.8 -0.5 80
2020-03-10 04:00:00 7.9 0 Calma 13 Noroeste 0 1014.5 -0.7 83
2020-03-10 03:00:00 8 9 Noroeste 13 Noroeste 0 1014.6 -- 79
2020-03-10 02:00:00 9 0 Calma -- -- -- 1015.3 0.8 75
2020-03-10 01:00:00 10 2 Sudeste 9 Sur 0 1015.2 1.1 70
2020-03-10 00:00:00 -- -- -- -- -- -- -- -- --
2020-03-09 23:00:00 15.3 8 Norte 17 Sudeste 0 1014.5 1.5 47
2020-03-09 22:00:00 18.2 11 Nordeste 24 Norte 0 1014.1 1.6 36
2020-03-09 21:00:00 18.9 10 Nordeste 28 Noroeste 0 1013.5 1.1 36
2020-03-09 20:00:00 18.7 11 Norte 17 Norte 0 1013 0.1 35
2020-03-09 19:00:00 20.6 8 Nordeste 11 Nordeste 0 1012.5 -1 39
2020-03-09 18:00:00 23.8 4 Sur 17 Sudoeste 0 1012.4 -2 31
2020-03-09 17:00:00 23.3 8 Sur 18 Sudoeste 0 1012.9 -2.4 34
2020-03-09 16:00:00 22.5 8 Sudoeste 18 Sudoeste 0 1013.5 -2.7 39
2020-03-09 15:00:00 21.6 8 Sur 18 Sudoeste 0 1014.4 -2.2 40
2020-03-09 14:00:00 20.5 11 Sur 18 Sur 0 1015.3 -1.6 43
2020-03-09 13:00:00 19.2 10 Oeste 17 Oeste 0 1016.2 -0.7 51
2020-03-09 12:00:00 17.5 3 Sudoeste 9 Oeste 0 1016.6 0.2 57
2020-03-09 11:00:00 15.1 5 Sur 11 Sur 0 1016.9 1.2 61
2020-03-09 10:00:00 11.6 2 Oeste 8 Sudoeste 0 1016.9 1.4 70
2020-03-09 09:00:00 7.4 4 Sudoeste 5 Sudoeste 0 1016.4 1.3 83
2020-03-09 08:00:00 4 2 Noroeste 8 Sudoeste 0 1015.7 0.9 89
2020-03-09 07:00:00 4.5 4 Sudoeste 5 Sudoeste 0 1015.5 0.6 86
2020-03-09 06:00:00 5.1 2 Sudoeste 8 Noroeste 0 1015.1 -0.3 84
2020-03-09 05:00:00 5.9 7 Oeste 11 Sur 0 1014.8 -0.8 83
2020-03-09 04:00:00 6.3 6 Sur 11 Sur 0 1014.9 0 83
2020-03-09 03:00:00 7.4 5 Oeste 11 Noroeste 0 1015.4 0.5 81
2020-03-09 02:00:00 8.4 3 Sur -- -- -- 1015.6 0.7 77
2020-03-09 01:00:00 10.1 8 Sur 13 Sur 0 1014.9 0.2 71
2020-03-09 00:00:00 13 4 Sudoeste 11 Sur 0 1014.9 1.1 55
2020-03-08 23:00:00 13.3 4 Sur 15 Oeste 0 1014.9 1 58
2020-03-08 22:00:00 14.1 7 Oeste 11 Sur 0 1014.7 1.1 60
2020-03-08 21:00:00 16.1 10 Oeste 13 Oeste 0 1013.8 0.8 55
2020-03-08 20:00:00 17.4 5 Sudoeste 17 Oeste 0 1013.9 1.2 49
2020-03-08 19:00:00 20.1 12 Noroeste 18 Oeste 0 1013.6 0.5 38
2020-03-08 18:00:00 22.6 15 Sudoeste 24 Oeste 0 1013 -0.9 34
2020-03-08 17:00:00 23.3 6 Sudoeste 18 Sur 0 1012.7 -2 30
2020-03-08 16:00:00 22.9 10 Sudoeste 18 Sudoeste 0 1013.1 -2.8 31
2020-03-08 15:00:00 22.2 8 Sudoeste 17 Sudoeste 0 1013.9 -2.7 37
2020-03-08 14:00:00 21 5 Sudeste 13 Nordeste 0 1014.7 -2.2 35
2020-03-08 13:00:00 19.2 8 Este 18 Este 0 1015.9 -1.2 40
2020-03-08 12:00:00 16.6 14 Este 22 Nordeste 0 1016.6 0.2 46
2020-03-08 11:00:00 14 15 Este 24 Este 0 1016.9 1.1 55
2020-03-08 10:00:00 10.7 9 Nordeste 21 Este 0 1017.1 1.6 69
2020-03-08 09:00:00 7.2 10 Este 15 Este 0 1016.4 1.3 82
2020-03-08 08:00:00 3.3 8 Nordeste 13 Este 0 1015.8 0.9 91
2020-03-08 07:00:00 2.9 8 Este 11 Este 0 1015.5 0.6 89
2020-03-08 06:00:00 2.6 5 Este 8 Este 0 1015.1 -0.3 87
2020-03-08 05:00:00 2.8 3 Sur 5 Sur 0 1014.9 -0.8 87
2020-03-08 04:00:00 3.3 0 Calma 5 Oeste 0 1014.9 -1.1 86
2020-03-08 03:00:00 3.9 0 Calma 5 Sur 0 1015.4 -0.6 85
2020-03-08 02:00:00 4.5 2 Norte -- -- -- 1015.7 -0.4 83
2020-03-08 01:00:00 5.6 5 Oeste 8 Oeste 0 1016 0.2 81
2020-03-08 00:00:00 6.8 2 Sudoeste 5 Sudoeste 0 1016 1.1 78
2020-03-07 23:00:00 8.1 0 Calma 5 Sur 0 1016.1 1.7 74
2020-03-07 22:00:00 9.4 6 Oeste 9 Oeste 0 1015.8 2.3 68
2020-03-07 21:00:00 12.1 3 Nordeste 13 Sudeste 0 1014.9 2 60
2020-03-07 20:00:00 14.8 0 Calma 8 Sudeste 0 1014.4 1.3 47
2020-03-07 19:00:00 18.4 4 Este 17 Este 0 1013.5 0.2 38
2020-03-07 18:00:00 19.9 10 Este 18 Nordeste 0 1012.9 -1.1 31
2020-03-07 17:00:00 20.3 12 Este 26 Este 0 1013.1 -1.9 30
2020-03-07 16:00:00 19.9 17 Este 26 Sudeste 0 1013.3 -2.7 31
2020-03-07 15:00:00 19.3 17 Este 28 Este 0 1014 -2.5 31
2020-03-07 14:00:00 18.4 16 Este 30 Este 0 1015 -1.9 32
2020-03-07 13:00:00 17.4 17 Este 28 Nordeste 0 1016 -1.1 31
2020-03-07 12:00:00 15.5 18 Este 26 Este 0 1016.5 -0.2 39
2020-03-07 11:00:00 13.4 15 Nordeste 22 Este 0 1016.9 1.1 48
2020-03-07 10:00:00 11.3 12 Este 15 Este 0 1017.1 1.9 60
2020-03-07 09:00:00 6 4 Sur 8 Sudoeste 0 1016.7 1.7 85
2020-03-07 08:00:00 2.2 0 Calma 5 Sudoeste 0 1015.8 1.3 89
2020-03-07 07:00:00 2.4 3 Nordeste 5 Nordeste 0 1015.2 0.5 87
2020-03-07 06:00:00 2.6 0 Calma 11 Sur 0 1015 0.4 86
2020-03-07 05:00:00 3.3 5 Oeste 11 Sudoeste 0 1014.5 0.1 83
2020-03-07 04:00:00 4.6 5 Noroeste 11 Sur 0 1014.7 0.9 77
2020-03-07 03:00:00 5.5 4 Este 13 Sur 0 1014.6 0.9 77
2020-03-07 02:00:00 7.1 5 Sur -- -- -- 1014.4 1 71
2020-03-07 01:00:00 10.1 7 Sur 15 Sur 0 1013.8 0.7 56
2020-03-07 00:00:00 10.7 6 Sudeste 17 Nordeste 0 1013.7 1.3 55
2020-03-06 23:00:00 8.1 9 Sudoeste 15 Sur 0 1013.4 1.9 72
2020-03-06 22:00:00 12.3 3 Norte 28 Norte 0 1013.1 2.4 50
2020-03-06 21:00:00 14.1 15 Noroeste 28 Norte 0 1012.4 2.3 41
2020-03-06 20:00:00 14.5 12 Norte 24 Noroeste 0 1011.5 1.5 41
2020-03-06 19:00:00 17.1 16 Noroeste 32 Noroeste 0 1010.7 0.6 32
2020-03-06 18:00:00 18.6 17 Noroeste 35 Noroeste 0 1010.1 -0.2 30
2020-03-06 17:00:00 19.3 18 Noroeste 35 Noroeste 0 1010 -1.1 31
2020-03-06 16:00:00 19.3 22 Noroeste 35 Noroeste 0 1010.1 -1.6 33
2020-03-06 15:00:00 19.3 19 Noroeste 35 Oeste 0 1010.3 -1.7 35
2020-03-06 14:00:00 18.3 15 Oeste 35 Oeste 0 1011.1 -1.7 44
2020-03-06 13:00:00 16.4 19 Oeste 35 Oeste 0 1011.7 -1 56
2020-03-06 12:00:00 14.4 19 Sudoeste 32 Sudoeste 0 1012 -0.4 64
2020-03-06 11:00:00 11.2 13 Oeste 21 Oeste 0 1012.8 1.1 80
2020-03-06 10:00:00 10 12 Sudoeste 21 Sudoeste 0 1012.7 1.5 81
2020-03-06 09:00:00 7.6 4 Oeste 9 Sudoeste 0 1012.4 1.7 88
2020-03-06 08:00:00 5.4 0 Calma 11 Noroeste 0 1011.7 1 90
2020-03-06 07:00:00 6 6 Noroeste 13 Oeste 0 1011.2 0.5 89
2020-03-06 06:00:00 7.2 9 Sudoeste 17 Sudoeste 0 1010.7 -0.4 86
2020-03-06 05:00:00 7.2 13 Sudoeste 18 Sudoeste 0 1010.7 -0.4 86
2020-03-06 04:00:00 8.2 10 Sudoeste 22 Oeste 0 1010.7 0 84
2020-03-06 03:00:00 8.4 11 Sudoeste 15 Oeste 0 1011.1 0.6 81
2020-03-06 02:00:00 8.1 5 Oeste 11 Sudoeste 0 1011.1 1 81
2020-03-06 01:00:00 8.4 6 Sur 13 Sudoeste 0 1010.7 1.4 79
2020-03-06 00:00:00 9.8 4 Oeste 15 Oeste 0 1010.5 2.1 73
2020-03-05 23:00:00 10 12 Oeste 17 Oeste 0 1010.1 2.1 75
2020-03-05 22:00:00 11.1 4 Oeste 11 Oeste 0 1009.3 2.3 68
2020-03-05 21:00:00 12.8 7 Oeste 18 Oeste 0 1008.4 1.9 61
2020-03-05 20:00:00 15.4 14 Oeste 28 Oeste 0 1008 2 51
2020-03-05 19:00:00 17.1 18 Oeste 30 Noroeste 0 1007 0.6 46
2020-03-05 18:00:00 18.8 18 Oeste 35 Oeste 0 1006.5 -0.6 42
2020-03-05 17:00:00 18 15 Oeste 30 Sudoeste 0 1006 -1.7 62
2020-03-05 16:00:00 17.7 15 Oeste 26 Sudoeste 0 1006.4 -1.7 72
2020-03-05 15:00:00 14.9 12 Oeste 22 Oeste 0 1007.1 -1.6 85
2020-03-05 14:00:00 13.8 8 Oeste 17 Oeste 0 1007.7 -1.1 85
2020-03-05 13:00:00 13.2 11 Oeste 21 Oeste 0 1008.1 -0.6 85
2020-03-05 12:00:00 12.2 12 Oeste 17 Noroeste 0 1008.7 0 90
2020-03-05 11:00:00 11.5 10 Sudoeste 17 Sudoeste 0 1008.8 0.9 94
2020-03-05 10:00:00 9.7 8 Oeste 15 Oeste 0 1008.7 0.8 95
2020-03-05 09:00:00 7.1 2 Oeste 5 Norte 0 1008.7 0.7 94
2020-03-05 08:00:00 5.7 4 Sur 5 Sur 0 1007.9 -0.3 94
2020-03-05 07:00:00 5.6 3 Noroeste 5 Sur 0 1007.9 -0.7 93
2020-03-05 06:00:00 5.8 2 Sudoeste 5 Sudoeste 0 1008 -1.6 93
2020-03-05 05:00:00 6.6 3 Oeste 4 Oeste 0 1008.2 -1.6 92
2020-03-05 04:00:00 7 0 Calma -- -- 0 1008.6 -1.6 91
2020-03-05 03:00:00 7.3 9 Oeste 11 Oeste 0 1009.6 -1 90
2020-03-05 02:00:00 8.2 3 Sudoeste 8 Oeste 0 1009.8 -0.9 89
2020-03-05 01:00:00 8.9 4 Sur 8 Sudoeste 0 1010.2 -0.6 87
2020-03-05 00:00:00 -- 8 Sur 9 Sur 0 1010.6 -0.2 --
2020-03-04 23:00:00 11.9 5 Sur 11 Sur 0 1010.7 0.1 78
2020-03-04 22:00:00 14 4 Sudoeste 11 Sudoeste 0 1010.8 0.5 69
2020-03-04 21:00:00 15.7 5 Noroeste 13 Noroeste 0 1010.8 0.9 63
2020-03-04 20:00:00 17.1 7 Noroeste 17 Norte 0 1010.6 0.9 58
2020-03-04 19:00:00 20.1 14 Noroeste 24 Noroeste 0 1010.3 -0.1 48
2020-03-04 18:00:00 21.6 8 Oeste 22 Oeste 0 1009.9 -1 46
2020-03-04 17:00:00 21.8 14 Oeste 24 Noroeste 0 1009.7 -2.2 43
2020-03-04 16:00:00 22.1 15 Oeste 37 Oeste 0 1010.4 -2.6 43
2020-03-04 15:00:00 22.1 19 Oeste 28 Oeste 0 1010.9 -2.6 47
2020-03-04 14:00:00 20.3 16 Oeste 30 Sudoeste 0 1011.9 -2 54
2020-03-04 13:00:00 19.8 13 Oeste 24 Oeste 0 1013 -0.8 59
2020-03-04 12:00:00 19.6 12 Sudoeste 18 Sudoeste 0 1013.5 -0.1 60
2020-03-04 11:00:00 17.4 8 Sudoeste 17 Oeste 0 1013.9 0.6 76
2020-03-04 10:00:00 15.8 9 Oeste 17 Oeste 0 1013.8 0.6 85
2020-03-04 09:00:00 14.1 8 Sudoeste 13 Sudoeste 0 1013.6 0.4 93
2020-03-04 08:00:00 13.6 6 Sudoeste 13 Oeste 0 1013.3 0.4 93
2020-03-04 07:00:00 13.7 7 Sudoeste 17 Oeste 0 1013.2 -0.3 93
2020-03-04 06:00:00 13.9 11 Oeste 17 Oeste 0 1013.2 -0.8 93
2020-03-04 05:00:00 14 9 Oeste 13 Oeste 0 1012.9 -0.9 92
2020-03-04 04:00:00 14.4 6 Oeste 11 Oeste 0 1013.5 -0.5 90
2020-03-04 03:00:00 14.5 4 Oeste 11 Oeste 0 1014 -0.1 89
2020-03-04 02:00:00 14.5 9 Oeste 15 Oeste 0 1013.8 -0.3 87
2020-03-04 01:00:00 14.6 11 Oeste 21 Oeste 0 1014 0.3 86
2020-03-04 00:00:00 14.7 11 Sudoeste 21 Oeste 0 1014.1 0.8 84
2020-03-03 23:00:00 14.8 11 Sudoeste 18 Oeste 0 1014.1 1.3 80
2020-03-03 22:00:00 15.2 13 Oeste 28 Sudoeste 0 1013.7 1.5 77
2020-03-03 21:00:00 15.9 16 Sudoeste 26 Sudoeste 0 1013.3 1.8 74
2020-03-03 20:00:00 16.5 15 Sudoeste 28 Sudoeste 0 1012.8 1.3 71
2020-03-03 19:00:00 17.1 15 Oeste 30 Oeste 0 1012.2 0.5 67
2020-03-03 18:00:00 17.5 15 Sudoeste 28 Oeste 0 1011.5 -0.8 63
2020-03-03 17:00:00 17.4 14 Sudoeste 26 Oeste 0 1011.5 -1.3 63
2020-03-03 16:00:00 16.6 13 Oeste 26 Oeste 0 1011.7 -2.1 60
2020-03-03 15:00:00 16.4 15 Oeste 30 Oeste 0 1012.3 -1.8 60
2020-03-03 14:00:00 16.7 21 Sudoeste 32 Sudoeste 0 1012.8 -1.4 56
2020-03-03 13:00:00 15.8 19 Sudoeste 28 Oeste 0 1013.8 -0.7 62
2020-03-03 12:00:00 14.8 14 Sudoeste 22 Oeste 0 1014.1 0.3 64
2020-03-03 11:00:00 12.9 10 Oeste 17 Sudoeste 0 1014.2 1.3 71
2020-03-03 10:00:00 10.4 7 Sudoeste 9 Sudoeste 0 1014.5 2.2 84
2020-03-03 09:00:00 7.2 6 Sudoeste 8 Sudoeste 0 1013.8 2 92
2020-03-03 08:00:00 6.4 6 Sur 9 Sudoeste 0 1012.9 1.2 92
2020-03-03 07:00:00 6.4 7 Sur 9 Sur 0 1012.3 0.3 90
2020-03-03 06:00:00 6.2 5 Sur 13 Sur 0 1011.8 -0.3 89
2020-03-03 05:00:00 7 8 Sudoeste 11 Sudoeste 0 1011.7 -1.1 86
2020-03-03 04:00:00 8 7 Sur 9 Sur 0 1012 -0.5 84
2020-03-03 03:00:00 8.3 6 Oeste 11 Sudoeste 0 1012.1 -0.6 81
2020-03-03 02:00:00 9.8 3 Oeste 9 Oeste 0 1012.8 0.7 78
2020-03-03 01:00:00 10.1 6 Sudoeste 9 Sudoeste 0 1012.5 1.1 76
2020-03-03 00:00:00 10.2 4 Sur 13 Noroeste 0 1012.7 2.6 75
2020-03-02 23:00:00 11.3 4 Oeste 15 Oeste 0 1012.1 3.2 67
2020-03-02 22:00:00 13 13 Oeste 21 Oeste 0 1011.4 3.5 59
2020-03-02 21:00:00 14.4 9 Oeste 26 Oeste 0 1010.1 3.2 54
2020-03-02 20:00:00 15.6 16 Oeste 32 Noroeste 0 1008.9 2.9 46
2020-03-02 19:00:00 16.7 21 Oeste 42 Oeste 0 1007.9 3.3 44
2020-03-02 18:00:00 18.1 24 Noroeste 45 Noroeste 0 1006.9 2.4 42
2020-03-02 17:00:00 19 31 Noroeste 50 Oeste 0 1006 1.2 39
2020-03-02 16:00:00 20.1 29 Oeste 45 Noroeste 0 1004.6 0.3 39
2020-03-02 15:00:00 20.2 30 Oeste 54 Oeste 0 1004.5 0.2 40
2020-03-02 14:00:00 20.2 35 Oeste 54 Oeste 0 1004.8 0.4 34
2020-03-02 13:00:00 18.3 23 Oeste 45 Oeste 0 1004.3 0.8 60
2020-03-02 12:00:00 17.3 26 Oeste 55 Oeste 0 1004.3 0.9 78
2020-03-02 11:00:00 16.2 22 Oeste 55 Oeste 0 1004.4 1.8 89
2020-03-02 10:00:00 16 32 Sudoeste 48 Sudoeste 0 1003.5 1.4 87
2020-03-02 09:00:00 14.9 27 Sudoeste 45 Sudoeste 0 1003.4 -0.1 90
2020-03-02 08:00:00 14.6 30 Sudoeste 42 Sudoeste 0.1 1002.6 -0.6 92
2020-03-02 07:00:00 14.6 28 Sudoeste 54 Sudoeste 0.1 1002.1 -1 91
2020-03-02 06:00:00 14.7 29 Sudoeste 46 Oeste 0.3 1003.5 -0.3 90
2020-03-02 05:00:00 14.8 22 Oeste 41 Oeste 0 1003.2 -1.5 91
2020-03-02 04:00:00 14.8 19 Oeste 50 Sudoeste 0.5 1003.1 -2.8 90
2020-03-02 03:00:00 15 26 Sudoeste 42 Sudoeste 0 1003.8 -2.2 88
2020-03-02 02:00:00 14.7 28 Sudoeste 45 Sudoeste 0.1 1004.7 -2 90
2020-03-02 01:00:00 14.9 21 Sudoeste 48 Sudoeste 0 1005.9 -0.6 87
2020-03-02 00:00:00 15.2 26 Sudoeste 48 Sudoeste 0 1006 -0.3 84